Rachel, Nevada Weather observations

Data are for observation ending at time listed.
 Day   Time    Ave.   Ave.  Ave.  Vector   Max.   Stn.    Total    Solar   Ave.  
  of    of     Air    Rel.  Wind   Wind    Wind   Baro.  Precip.   Rad.    Soil  
Year   Day     Temp.  Hum.  Speed  Dir.    Gust   Pres.                    Temp. 
2026   (PST)    F      %     mph   deg.    mph     mb.     in.     W/m2     F   
------------------------------------------------------------------------------
 125    2:20   39.8    49    2.1   178      6.0   843.3    0.00       0    59.8
 125    2:30   38.6    52    5.0   170      5.9   843.2    0.00       0    59.7
 125    2:40   38.4    53    1.7   177      4.7   843.3    0.00       0    59.6
 125    2:50   38.1    53    2.3   182      4.1   843.3    0.00       0    59.5
 125    3:00   37.5    54    3.4   229      4.3   843.2    0.00       0    59.3
 125    3:10   37.2    55    2.0   196      3.9   843.2    0.00       0    59.1
 125    3:20   37.1    56    3.5   183      4.7   843.1    0.00       0    58.6
 125    3:30   37.6    56    2.8   175      3.5   843.2    0.00       0    58.8
 125    3:40   37.3    55    4.2   148      6.0   843.1    0.00       0    58.6
 125    3:50   36.5    58    2.9   180      4.3   843.1    0.00       0    58.3
 125    4:00   35.4    57    2.2   275      5.5   843.1    0.00       0    58.1
 125    4:10   34.3    60    1.6   284      3.7   843.0    0.00       0    58.2
 125    4:20   34.7    58    1.7   164      3.6   842.7    0.00       0    58.0
 125    4:30   35.3    60    3.6   200      5.1   842.6    0.00       0    57.7
 125    4:40   35.5    60    3.3   213      4.7   842.8    0.00       2    57.6
 125    4:50   35.2    60    1.4   204      2.3   843.0    0.00       4    57.4
 125    5:00   35.6    61    0.0   198      1.1   843.1    0.00      11    57.3
 125    5:10   36.4    58    0.0     0      0.0   843.1    0.00      27    57.2
 125    5:20   36.7    54    0.0     0      0.0   843.4    0.00      53    57.1
 125    5:30   37.3    56    0.0     0      0.0   843.5    0.00      81    56.9
 125    5:40   39.9    54    1.1   201      3.1   843.7    0.00     107    56.9
 125    5:50   38.8    54    3.5   190      4.2   843.9    0.00     133    56.8
 125    6:00   41.0    53    2.5   180      3.4   844.1    0.00     161    56.7
 125    6:10   44.8    48    0.1   172      2.0   844.3    0.00     189    56.8
 125    6:20   48.5    42    0.0     0      0.0   844.5    0.00     218    56.7
 125    6:30   48.7    42    0.2   348      1.8   844.8    0.00     247    56.6
 125    6:40   49.7    40    0.0   325      0.1   845.0    0.00     276    57.0
 125    6:50   49.9    40    0.1    25      1.2   845.3    0.00     304    56.8
 125    7:00   51.4    38    0.1    46      1.3   845.5    0.00     332    57.1
 125    7:10   52.1    38    0.4    72      1.9   845.7    0.00     359    57.1
 125    7:20   51.1    39    1.3   344      4.1   845.4    0.00     386    57.4
 125    7:30   52.1    38    0.2   320      1.4   845.5    0.00     412    57.5
 125    7:40   52.2    38    1.8   350      4.7   845.8    0.00     438    57.9
 125    7:50   51.7    39    2.3   352      4.8   845.7    0.00     464    58.1
 125    8:00   52.7    38    2.7   338      6.4   845.7    0.00     489    58.4
 125    8:10   52.9    38    2.0   323      4.7   845.8    0.00     515    58.6
 125    8:20   55.4    34    1.4   336      5.0   845.8    0.00     533    58.7
 125    8:30   55.4    34    3.5   344      6.6   845.8    0.00     557    59.1
 125    8:40   55.1    34    4.8   358      7.4   845.9    0.00     581    59.7
 125    8:50   56.4    33    1.8   358      5.8   846.0    0.00     600    60.1
 125    9:00   56.6    33    4.4   327      8.6   846.0    0.00     620    60.8
 125    9:10   56.7    33    3.4   169      8.3   846.0    0.00     639    61.0
 125    9:20   57.6    32    2.7   161      6.6   846.1    0.00     656    61.2
 125    9:30   59.3    30    1.7   253      5.0   846.2    0.00     670    61.8
 125    9:40   58.7    31    5.1   212     10.5   846.3    0.00     690    62.4
 125    9:50   59.7    30    3.8   225      7.8   846.4    0.00     704    62.9
 125   10:00   61.5    28    3.1    36      8.0   846.5    0.00     716    64.0
 125   10:10   60.0    29    6.4   316     11.2   846.5    0.00     729    64.1
 125   10:20   60.9    28    4.9   325     11.4   846.8    0.00     723    64.5
 125   10:30   61.7    27    2.7   354     11.2   846.8    0.00     720    65.4
 125   10:40   63.1    26    1.2    34      5.8   846.9    0.00     729    65.8
 125   10:50   63.1    26    2.2   265      6.0   846.9    0.00     735    66.2
 125   11:00   64.4    24    3.1   221      9.9   846.8    0.00     715    66.9
 125   11:10   62.1    26    4.6   263     10.9   846.7    0.00     532    67.3
 125   11:20   62.8    24    5.5   198     11.5   846.5    0.00     864    68.0
 125   11:30   63.9    24    6.2   237     14.2   846.5    0.00     794    68.5
 125   11:40   63.2    24    4.9   222     12.6   846.5    0.00     511    68.7
 125   11:50   63.8    23    2.9   308      8.2   846.5    0.00     379    69.3
 125   12:00   63.3    24    7.3   306     14.5   846.3    0.00     526    69.7
 125   12:10   63.2    24    5.8   279     10.9   846.2    0.00     738    70.3
 125   12:20   65.1    22    6.2   266     13.7   846.1    0.00     803    70.4
 125   12:30   64.5    22    5.9   262     14.0   846.0    0.00     826    70.6
 125   12:40   66.3    20    6.9   234     13.1   846.1    0.00     818    70.8
 125   12:50   66.3    20    6.1   247     12.2   846.2    0.00     793    70.6
 125   13:00   65.2    21    3.1   173      8.3   846.2    0.00     767    70.7
 125   13:10   65.4    20    4.8    48     10.4   846.3    0.00     765    70.4
 125   13:20   66.0    20    4.6   139     11.3   846.3    0.00     643    70.4
 125   13:30   65.3    20   10.7   152     15.8   846.2    0.00     327    70.5
 125   13:40   64.6    20    7.4    88     14.8   846.0    0.00     627    70.3
 125   13:50   65.7    18    9.8   152     13.7   845.9    0.00     600    70.2
 125   14:00   65.2    19    4.9   154      9.8   845.8    0.00     545    70.0
 125   14:10   65.5    18    6.2   185     12.1   845.7    0.00     424    69.9
 125   14:20   66.0    18    5.9   194      9.0   845.6    0.00     495    69.8
 125   14:30   67.1    17    5.0   246      8.0   845.5    0.00     506    69.8
 125   14:40   66.9    17    6.1   305     10.8   845.5    0.00     413    69.8
 125   14:50   68.3    16    4.2   264     12.5   845.5    0.00     532    69.8
 125   15:00   68.5    16    2.9   206      6.4   845.5    0.00     570    69.7
 125   15:10   68.2    16    7.2   309     11.0   845.5    0.00     529    69.5
 125   15:20   68.1    16    7.4   316     12.6   845.4    0.00     369    69.7
 125   15:30   66.7    17    6.4   314     11.9   845.4    0.00     398    69.2
 125   15:40   66.6    17    4.3   325      7.5   845.3    0.00     329    69.3
 125   15:50   67.6    16    4.1   298      6.9   845.2    0.00     405    69.2
 125   16:00   68.0    16    3.6   342      6.6   845.3    0.00     348    69.3
 125   16:10   68.4    16    4.1   344     10.7   845.3    0.00     343    69.2
 125   16:20   67.6    16    7.1     9     11.6   845.4    0.00     314    69.0
 125   16:30   67.3    17    4.6   345      8.8   845.4    0.00     268    69.0
 125   16:40   67.4    17    3.3    74      6.9   845.4    0.00     279    69.0
 125   16:50   68.2    16    2.8    84      6.6   845.4    0.00     273    68.9
 125   17:00   68.5    16    3.4    34      9.3   845.4    0.00     247    68.6
 125   17:10   67.8    16    6.9   337     11.9   845.5    0.00     163    68.6
 125   17:20   68.4    16    3.7   295      6.8   845.5    0.00     190    68.6
 125   17:30   69.9    15    4.4   237      7.9   845.5    0.00     147    68.7
 125   17:40   68.4    15    3.3   242      5.5   845.5    0.00     119    68.4
 125   17:50   68.7    14    5.1   256      9.2   845.5    0.00      95    68.3
 125   18:00   67.0    14    3.9   248      6.2   845.4    0.00      27    68.1
 125   18:10   66.2    15    4.0   262      6.3   845.4    0.00      19    68.2
 125   18:20   65.5    16    3.2   269      5.1   845.3    0.00      14    68.0
 125   18:30   64.8    18    5.7   260     11.9   845.3    0.00      11    67.9
 125   18:40   63.4    24    8.9   244     14.3   845.5    0.00       4    67.7
 125   18:50   62.5    26    9.1   233     15.5   845.5    0.00       2    67.5
 125   19:00   62.4    25   12.7   247     18.9   845.5    0.00       0    67.3
 125   19:10   62.1    26   13.5   252     20.1   845.6    0.00       0    67.1
 125   19:20   61.3    27   10.2   261     17.8   845.7    0.00       0    67.0
 125   19:30   61.1    28   11.7    13     22.1   845.7    0.00       0    66.9
 125   19:40   61.0    28   18.1    33     26.9   846.0    0.00       0    66.7
 125   19:50   60.9    29   15.3    80     21.2   846.4    0.00       0    66.7
 125   20:00   60.4    30    8.8    42     15.2   846.7    0.00       0    66.5
 125   20:10   59.7    32   12.6    17     16.1   846.9    0.00       0    66.4
 125   20:20   58.9    34   10.7    13     13.7   847.2    0.00       0    66.0
 125   20:30   58.7    34    9.4     3     12.6   847.2    0.00       0    65.9
 125   20:40   58.1    33    5.5     9      8.6   847.2    0.00       0    66.0
 125   20:50   57.4    34    4.5     5      5.3   846.9    0.00       0    65.6
 125   21:00   57.0    34    6.2    11      7.0   846.9    0.00       0    65.6
 125   21:10   55.9    35    5.4    21      6.6   847.2    0.00       0    65.5
 125   21:20   55.3    36    2.6    23      5.0   847.3    0.00       0    65.3
 125   21:30   55.0    36    3.2    27      5.4   847.4    0.00       0    65.3
 125   21:40   55.3    36    5.1    85      6.3   847.2    0.00       0    64.8
 125   21:50   57.4    35    5.7    98     11.8   847.4    0.00       0    64.6
 125   22:00   58.2    34    6.0    75     10.2   847.6    0.00       0    65.1
 125   22:10   58.4    34    5.6    55      9.4   847.8    0.00       0    64.6
 125   22:20   58.3    36    7.3     9     13.6   847.9    0.00       0    64.2
 125   22:30   58.7    37   10.8     2     14.8   847.9    0.00       0    64.3
 125   22:40   58.4    38   11.6   360     15.8   848.0    0.00       0    64.1
 125   22:50   57.9    40   11.5   350     15.1   848.1    0.00       0    64.2
 125   23:00   57.2    42   11.2   348     14.8   848.2    0.00       0    63.9
 125   23:10   56.5    44   11.7   342     14.8   848.2    0.00       0    63.8
 125   23:20   55.9    45    9.6   334     12.9   848.1    0.00       0    63.9
 125   23:30   55.2    46    7.6   330     11.5   848.0    0.00       0    63.8
 125   23:40   54.4    48    4.9   331      7.6   848.0    0.00       0    63.8
 125   23:50   53.6    49    4.7   230      6.9   848.0    0.00       0    63.4
 126    0:00   53.5    50    3.7   217      6.8   847.7    0.00       0    63.3
 126    0:10   53.5    50    2.4   216      4.6   847.8    0.00       0    63.2
 126    0:20   52.5    51    2.5   191      4.0   847.7    0.00       0    63.3
 126    0:30   51.9    52    2.2   240      3.9   847.7    0.00       0    63.2
 126    0:40   51.2    53    1.9   203      3.1   847.7    0.00       0    62.9
 126    0:50   50.2    54    3.5   186      4.8   847.6    0.00       0    62.8
 126    1:00   49.6    54    3.7   195      4.6   847.6    0.00       0    62.8
 126    1:10   48.9    56    4.6   220      6.2   847.8    0.00       0    62.7
 126    1:20   49.8    57    4.7   236      6.6   847.8    0.00       0    62.6
 126    1:30   50.1    58    5.9   248      8.1   847.9    0.00       0    62.3
 126    1:40   49.7    59    5.8   237      7.7   847.9    0.00       0    62.0
 126    1:50   49.7    60    7.1   233      9.6   847.9    0.00       0    61.9
 126    2:00   50.3    58    6.3   221      8.8   847.9    0.00       0    61.9
 126    2:10   50.0    60    5.9   241      9.5   847.9    0.00       0    61.8

Return to St. George, Utah graphs page.


Western Regional Climate Center,wrcc@dri.edu